Cancun, Mexico

11:55 AM EST on August 29, 2015 (GMT -0500)
Cancun | | Change Station
CLOSE
Current Station
Personal Weather Station
Location: Cancun, QUINTANA ROO
Elevation: 40 ft
Nearby Weather Stations

Elev 40 ft 21.15 °N, 86.84 °W | Updated 7 minutes ago

Scattered Clouds
Scattered Clouds
88.3 °F
Feels Like 104 °F
N
1.0
Wind Variable Wind from East
Gusts 9.0 mph

Today
High -- | Low -- °F
--% Chance of Precip.
Yesterday
High -- | Low -- °F
Precip. -- in
6:30 AM 7:06 PM
Full, 100% visible
Pressure 29.97 in
Visibility 8.0 miles
Clouds Scattered Clouds 1500 ft
Heat Index 104 °F
Dew Point 80 °F
Humidity 75%
Rainfall 0.00 in
Snow Depth Not available.
UV 13 out of 12
Pollen Not available.
Air Quality Not available.
Flu Activity Not available.
METAR MMCZ 291651Z 03008KT 8SM SCT015TCU 30/26 A2997 RMK 8/200 SC
Pressure 29.97 in
Visibility 8.0 miles
Clouds Scattered Clouds 1500 ft
Heat Index 104 °F
Dew Point 80 °F
Humidity 75%
Rainfall 0.00 in
Snow Depth Not available.
UV 13 out of 12
Pollen Not available.
Air Quality Not available.
Flu Activity Not available.
METAR MMCZ 291651Z 03008KT 8SM SCT015TCU 30/26 A2997 RMK 8/200 SC

10-Day Weather Forecast

×

Almanac

Astronomy

Aug. 29, 2015 Rise Set
Actual Time
Civil Twilight
Nautical Twilight
Astronomical Twilight
Moon
Length of Visible Light
Length of Day
Tomorrow will be .
, % of the Moon is Illuminated

Today's Extremes

Country Highs Country Lows

Community

WunderPhotos

Upload Photos

1,850,722 photos uploaded!

WunderBlogs® & News

Nearby

Air Quality

  Air Quality AQ Index Pollutant
Not available.

Snow Depth

Station Depth Elevation

Earthquake Activity

City Distance Mag. Time & Date
Minimum magnitude displayed is 2.5.

Coastal Water Temperatures

Place Temperature

Stations

Nearby Weather Stations

Station Location Temp. Windchill Dew Point Humidity Wind Precip. Elev Updated Type